Time;durP1;ratioP1;P1;durP2;ratioP2;P2;SDS_P1;SDS_P2;PMS_P1;PMS_P2;Temp;Humidity;BMP_temperature;BMP_pressure;BME280_temperature;BME280_humidity;BME280_pressure;Samples;Min_cycle;Max_cycle;Signal;HPM_P1;HPM_P2
2023/03/12 00:00:32;;;;;;;3.40;1.67;;;-1.40;99.90;;;;;;5045293;28;20193;-78
2023/03/12 00:02:58;;;;;;;2.80;1.57;;;-1.40;99.90;;;;;;5044274;28;20197;-79
2023/03/12 00:05:24;;;;;;;2.47;1.50;;;-1.40;99.90;;;;;;5043221;28;20578;-78
2023/03/12 00:07:51;;;;;;;3.23;1.50;;;-1.40;99.90;;;;;;5041784;28;20186;-78
2023/03/12 00:10:17;;;;;;;1.40;1.20;;;-1.40;99.90;;;;;;5043908;28;20197;-78
2023/03/12 00:12:43;;;;;;;2.43;1.63;;;-1.40;99.90;;;;;;5041111;28;20277;-79
2023/03/12 00:15:09;;;;;;;1.70;1.20;;;-1.40;99.90;;;;;;5041383;28;20291;-77
2023/03/12 00:17:35;;;;;;;3.33;1.70;;;-1.50;99.90;;;;;;5058857;28;20226;-77
2023/03/12 00:20:01;;;;;;;3.70;1.60;;;-1.50;99.90;;;;;;5042474;28;20272;-76
2023/03/12 00:22:26;;;;;;;2.70;1.43;;;-1.50;99.90;;;;;;5043550;28;20239;-79
2023/03/12 00:24:54;;;;;;;3.30;1.43;;;-1.60;99.90;;;;;;5050498;28;20621;-76
2023/03/12 00:27:20;;;;;;;1.43;1.20;;;-1.60;99.90;;;;;;5043276;28;20547;-79
2023/03/12 00:29:45;;;;;;;4.17;1.70;;;-1.60;99.90;;;;;;5042992;28;20321;-78
2023/03/12 00:32:11;;;;;;;4.93;1.90;;;-1.70;99.90;;;;;;5043484;28;20708;-78
2023/03/12 00:34:37;;;;;;;3.00;1.80;;;-1.60;99.90;;;;;;5040775;28;20214;-76
2023/03/12 00:37:02;;;;;;;3.67;2.40;;;-1.60;99.90;;;;;;5040629;28;20232;-78
2023/03/12 00:39:28;;;;;;;4.83;2.20;;;-1.70;99.90;;;;;;5043364;28;20565;-79
2023/03/12 00:41:54;;;;;;;3.47;2.00;;;-1.70;99.90;;;;;;5040659;28;20189;-78
2023/03/12 00:44:19;;;;;;;4.43;1.87;;;-1.80;99.90;;;;;;5035860;28;20222;-79
2023/03/12 00:46:45;;;;;;;5.07;1.80;;;-1.90;99.90;;;;;;5038182;28;20190;-77
2023/03/12 00:49:11;;;;;;;3.50;1.80;;;-2.10;99.90;;;;;;5040829;28;20186;-79
2023/03/12 00:51:37;;;;;;;3.23;1.63;;;-2.00;99.90;;;;;;5045829;28;20218;-75
2023/03/12 00:54:03;;;;;;;2.37;1.40;;;-2.00;99.90;;;;;;5039676;28;20240;-75
2023/03/12 00:56:29;;;;;;;2.93;1.50;;;-2.10;99.90;;;;;;5041834;28;20302;-78
2023/03/12 00:58:55;;;;;;;3.10;1.80;;;-2.10;99.90;;;;;;5041223;28;20298;-78
2023/03/12 01:01:20;;;;;;;3.57;1.63;;;-2.10;99.90;;;;;;5039314;28;20235;-79
2023/03/12 01:03:46;;;;;;;9.73;2.10;;;-2.00;99.90;;;;;;5037970;28;20195;-78
2023/03/12 01:06:12;;;;;;;1.97;1.40;;;-2.20;99.90;;;;;;5038974;28;20205;-78
2023/03/12 01:08:38;;;;;;;2.90;1.70;;;-2.30;99.90;;;;;;5039946;28;20254;-78
2023/03/12 01:11:03;;;;;;;2.40;1.40;;;-2.40;99.90;;;;;;5039240;28;20187;-79
2023/03/12 01:13:29;;;;;;;3.30;1.63;;;-2.50;99.90;;;;;;5040675;28;20198;-78
2023/03/12 01:15:55;;;;;;;5.07;1.70;;;-3.00;99.90;;;;;;5037726;28;20642;-79
2023/03/12 01:18:20;;;;;;;2.40;1.50;;;-2.60;99.90;;;;;;5038147;28;20217;-79
2023/03/12 01:20:46;;;;;;;3.93;1.50;;;-2.60;99.90;;;;;;5041020;28;20201;-78
2023/03/12 01:23:12;;;;;;;2.97;1.40;;;-2.60;99.90;;;;;;5041664;28;20651;-78
2023/03/12 01:25:37;;;;;;;3.40;1.90;;;-2.70;1.00;;;;;;5047443;28;20217;-78
2023/03/12 01:28:04;;;;;;;4.40;1.73;;;-2.70;1.00;;;;;;5037904;28;20213;-80
2023/03/12 01:30:30;;;;;;;2.87;1.87;;;-2.70;1.00;;;;;;5039690;28;20551;-79
2023/03/12 01:32:56;;;;;;;3.00;1.53;;;-2.80;1.00;;;;;;5038827;28;20265;-78
2023/03/12 01:35:22;;;;;;;3.00;1.70;;;-2.80;1.00;;;;;;5039149;28;20203;-78
2023/03/12 01:37:48;;;;;;;3.00;1.53;;;-2.80;1.00;;;;;;5057005;28;20597;-77
2023/03/12 01:40:16;;;;;;;5.20;1.57;;;-2.80;1.00;;;;;;5042351;28;20807;-79
2023/03/12 01:42:41;;;;;;;3.17;1.43;;;-2.80;1.00;;;;;;5046957;28;20186;-78
2023/03/12 01:45:45;;;;;;;3.73;1.77;;;-2.80;1.00;;;;;;5040347;28;20229;-80
2023/03/12 01:48:11;;;;;;;2.47;1.73;;;-2.90;1.00;;;;;;5040470;28;20190;-78
2023/03/12 01:50:37;;;;;;;3.97;1.70;;;-2.90;34.70;;;;;;5039535;28;20681;-79
2023/03/12 01:53:03;;;;;;;3.87;1.70;;;-2.90;58.40;;;;;;5039407;28;20201;-79
2023/03/12 01:55:29;;;;;;;2.33;1.50;;;-2.90;36.00;;;;;;5038818;28;20214;-77
2023/03/12 01:57:57;;;;;;;4.57;1.70;;;-2.80;37.80;;;;;;5037456;28;20206;-80
2023/03/12 02:00:25;;;;;;;2.07;1.57;;;-2.80;48.90;;;;;;5039740;28;20199;-79
2023/03/12 02:02:58;;;;;;;2.00;1.53;;;-2.80;5.10;;;;;;5037528;28;20584;-76
2023/03/12 02:05:42;;;;;;;3.70;1.60;;;-2.70;1.00;;;;;;5037104;28;20301;-79
2023/03/12 02:08:09;;;;;;;4.67;1.80;;;-2.60;1.00;;;;;;5038121;28;20189;-76
2023/03/12 02:10:34;;;;;;;3.70;1.77;;;-2.50;1.00;;;;;;5037300;28;20195;-78
2023/03/12 02:13:00;;;;;;;3.20;1.60;;;-2.50;99.90;;;;;;5035876;28;20199;-78
2023/03/12 02:15:26;;;;;;;2.03;1.37;;;-2.50;99.90;;;;;;5040833;28;20217;-79
2023/03/12 02:17:53;;;;;;;2.83;1.70;;;-2.50;99.90;;;;;;5036631;28;20217;-77
2023/03/12 02:20:38;;;;;;;3.40;1.73;;;-2.50;99.90;;;;;;5038145;28;20190;-79
2023/03/12 02:23:26;;;;;;;3.20;1.40;;;-2.50;99.90;;;;;;5039372;28;20196;-77
2023/03/12 02:25:54;;;;;;;2.63;1.47;;;-2.50;99.90;;;;;;5037836;28;20206;-79
2023/03/12 02:28:23;;;;;;;4.40;1.40;;;-2.50;99.90;;;;;;5037456;28;20202;-79
2023/03/12 02:30:51;;;;;;;2.00;1.30;;;-2.50;99.90;;;;;;5038332;28;20193;-80
2023/03/12 02:33:17;;;;;;;2.40;1.50;;;-2.60;99.90;;;;;;5036655;28;20194;-77
2023/03/12 02:35:46;;;;;;;4.57;1.50;;;-2.60;99.90;;;;;;5040755;28;20220;-79
2023/03/12 02:38:38;;;;;;;3.00;1.47;;;-2.60;99.90;;;;;;5039222;28;20743;-79
2023/03/12 02:41:25;;;;;;;3.03;1.20;;;-2.60;99.90;;;;;;5036334;28;20214;-78
2023/03/12 02:44:04;;;;;;;2.67;1.60;;;-2.60;99.90;;;;;;5037799;28;20655;-77
2023/03/12 02:46:34;;;;;;;3.47;1.47;;;-2.70;99.90;;;;;;5035769;28;20225;-78
2023/03/12 02:49:00;;;;;;;4.27;1.63;;;-2.60;99.90;;;;;;5037932;28;20183;-78
2023/03/12 02:51:26;;;;;;;2.40;1.40;;;-2.70;99.90;;;;;;5035322;28;20194;-78
2023/03/12 02:53:53;;;;;;;3.93;1.60;;;-2.70;99.90;;;;;;5035713;28;20665;-79
2023/03/12 02:56:21;;;;;;;2.33;1.70;;;-2.70;99.90;;;;;;5039198;28;20225;-78
2023/03/12 02:58:47;;;;;;;4.80;1.90;;;-2.70;99.90;;;;;;5037308;28;20722;-78
2023/03/12 03:01:12;;;;;;;3.50;1.80;;;-2.80;99.90;;;;;;5037203;28;20278;-78
2023/03/12 03:03:38;;;;;;;4.57;1.70;;;-2.80;99.90;;;;;;5034482;28;20183;-79
2023/03/12 03:06:04;;;;;;;3.13;1.30;;;-2.80;99.90;;;;;;5035109;28;20675;-78
2023/03/12 03:08:29;;;;;;;4.03;1.67;;;-2.80;99.90;;;;;;5036104;28;20178;-78
2023/03/12 03:10:55;;;;;;;1.87;1.57;;;-2.80;99.90;;;;;;5036826;28;20671;-77
2023/03/12 03:13:21;;;;;;;1.97;1.33;;;-2.90;99.90;;;;;;5038011;28;20928;-78
2023/03/12 03:15:46;;;;;;;1.97;1.43;;;-2.90;99.90;;;;;;5052292;28;20229;-79
2023/03/12 03:18:12;;;;;;;2.60;1.50;;;-2.90;99.90;;;;;;5035363;28;20207;-78
2023/03/12 03:20:37;;;;;;;1.83;1.37;;;-3.00;99.90;;;;;;5037820;28;20187;-78
2023/03/12 03:23:03;;;;;;;2.70;1.50;;;-3.00;1.00;;;;;;5036662;28;20195;-78
2023/03/12 03:25:29;;;;;;;5.77;1.50;;;-3.00;1.00;;;;;;5035699;28;20202;-78
2023/03/12 03:27:54;;;;;;;2.40;1.70;;;-3.00;1.00;;;;;;5035989;28;20215;-78
2023/03/12 03:30:20;;;;;;;4.40;1.47;;;-3.00;1.00;;;;;;5035228;28;20193;-78
2023/03/12 03:32:48;;;;;;;2.43;1.40;;;-3.00;1.00;;;;;;5036850;28;20249;-79
2023/03/12 03:35:14;;;;;;;3.53;1.40;;;-2.90;1.00;;;;;;5036230;28;20288;-78
2023/03/12 03:37:40;;;;;;;1.93;1.60;;;-2.80;1.00;;;;;;5040381;28;20710;-78
2023/03/12 03:40:11;;;;;;;4.57;1.53;;;-2.70;1.00;;;;;;5039036;28;20217;-77
2023/03/12 03:42:37;;;;;;;2.50;1.70;;;-2.70;1.00;;;;;;5039944;28;20179;-78
2023/03/12 03:45:04;;;;;;;4.77;1.90;;;-2.70;99.90;;;;;;5038169;28;20266;-80
2023/03/12 03:47:30;;;;;;;2.93;1.70;;;-2.70;99.90;;;;;;5037763;28;20193;-77
2023/03/12 03:49:55;;;;;;;1.90;1.50;;;-2.60;99.90;;;;;;5035668;28;20190;-77
2023/03/12 03:52:21;;;;;;;3.67;1.60;;;-2.60;99.90;;;;;;5038341;28;20187;-79
2023/03/12 03:54:46;;;;;;;2.60;1.53;;;-2.50;99.90;;;;;;5038413;28;20214;-79
2023/03/12 03:57:12;;;;;;;3.80;1.60;;;-2.40;99.90;;;;;;5035351;28;20222;-80
2023/03/12 03:59:37;;;;;;;2.17;1.50;;;-2.40;99.90;;;;;;5053992;28;20174;-78
2023/03/12 04:02:03;;;;;;;4.00;1.80;;;-2.40;99.90;;;;;;5038573;28;20187;-76
2023/03/12 04:04:30;;;;;;;4.97;1.90;;;-2.30;99.90;;;;;;5034799;28;20181;-79
2023/03/12 04:06:55;;;;;;;2.03;1.60;;;-1.30;99.90;;;;;;5034025;28;20539;-79
2023/03/12 04:09:21;;;;;;;4.40;2.20;;;-2.20;99.90;;;;;;5045191;28;20182;-80
2023/03/12 04:11:46;;;;;;;4.53;1.83;;;-2.20;99.90;;;;;;5037615;28;20190;-78
2023/03/12 04:14:12;;;;;;;1.97;1.60;;;-2.50;99.90;;;;;;5036793;28;20187;-77
2023/03/12 04:16:38;;;;;;;3.13;1.80;;;-2.50;99.90;;;;;;5034825;28;20435;-79
2023/03/12 04:19:03;;;;;;;2.10;1.70;;;-2.50;99.90;;;;;;5035186;28;20230;-80
2023/03/12 04:21:29;;;;;;;5.73;1.77;;;-2.50;99.90;;;;;;5052616;28;20555;-78
2023/03/12 04:23:55;;;;;;;2.30;1.63;;;-2.50;99.90;;;;;;5039598;28;20223;-78
2023/03/12 04:26:20;;;;;;;2.97;1.80;;;-2.50;99.90;;;;;;5039076;28;20209;-78
2023/03/12 04:28:46;;;;;;;2.70;1.63;;;-2.40;99.90;;;;;;5042950;28;20237;-79
2023/03/12 04:31:12;;;;;;;3.70;1.80;;;-2.30;99.90;;;;;;5041658;28;20182;-79
2023/03/12 04:33:39;;;;;;;3.33;1.60;;;-2.20;99.90;;;;;;5038258;28;20655;-79
2023/03/12 04:36:05;;;;;;;3.07;1.83;;;-2.10;99.90;;;;;;5042626;28;20213;-78
2023/03/12 04:38:32;;;;;;;4.33;1.70;;;-2.00;99.90;;;;;;5041207;28;20488;-79
2023/03/12 04:41:06;;;;;;;2.37;1.80;;;-2.00;99.90;;;;;;5038060;28;20712;-78
2023/03/12 04:43:33;;;;;;;3.10;1.80;;;-2.00;92.30;;;;;;5040337;28;20186;-78
2023/03/12 04:45:59;;;;;;;3.43;1.80;;;-2.10;93.80;;;;;;5042323;28;20198;-80
2023/03/12 04:48:25;;;;;;;2.33;1.63;;;-2.10;96.80;;;;;;5038056;28;20186;-80
2023/03/12 04:50:51;;;;;;;2.03;1.50;;;-2.30;99.70;;;;;;5040978;28;20191;-77
2023/03/12 04:53:17;;;;;;;3.87;1.90;;;-2.30;99.90;;;;;;5043221;28;20195;-78
2023/03/12 04:55:42;;;;;;;4.00;2.00;;;-2.40;99.90;;;;;;5042896;28;20709;-80
2023/03/12 04:58:08;;;;;;;3.37;1.80;;;-2.50;99.90;;;;;;5039500;28;20214;-79
2023/03/12 05:00:34;;;;;;;3.87;1.80;;;-2.60;99.90;;;;;;5055123;28;20189;-80
2023/03/12 05:02:59;;;;;;;3.77;2.03;;;-2.70;99.90;;;;;;5041125;28;20262;-78
2023/03/12 05:05:25;;;;;;;4.97;2.20;;;-2.70;99.90;;;;;;5041381;28;20206;-78
2023/03/12 05:07:51;;;;;;;2.70;1.73;;;-2.80;99.90;;;;;;5039957;28;20186;-79
2023/03/12 05:10:16;;;;;;;4.67;1.80;;;-2.70;99.90;;;;;;5038709;28;20194;-78
2023/03/12 05:12:42;;;;;;;3.33;2.07;;;-2.70;99.90;;;;;;5040728;28;20193;-78
2023/03/12 05:15:08;;;;;;;4.73;2.23;;;-2.70;99.90;;;;;;5038784;28;20287;-78
2023/03/12 05:17:33;;;;;;;4.30;2.20;;;-2.80;99.90;;;;;;5039530;28;20198;-78
2023/03/12 05:19:59;;;;;;;4.37;2.03;;;-2.80;99.90;;;;;;5039598;28;20178;-78
2023/03/12 05:22:24;;;;;;;5.20;2.47;;;-2.90;99.90;;;;;;5037367;28;20228;-78
2023/03/12 05:24:50;;;;;;;4.13;2.40;;;-2.80;99.90;;;;;;5041007;28;20206;-78
2023/03/12 05:27:15;;;;;;;3.23;1.70;;;-2.80;99.90;;;;;;5039586;28;20198;-79
2023/03/12 05:29:41;;;;;;;6.17;2.00;;;-2.80;99.90;;;;;;5041638;28;20597;-78
2023/03/12 05:32:07;;;;;;;3.13;2.17;;;-2.80;99.90;;;;;;5040021;28;20588;-78
2023/03/12 05:34:32;;;;;;;2.40;1.90;;;-2.80;99.90;;;;;;5038773;28;20688;-78
2023/03/12 05:36:59;;;;;;;2.30;1.50;;;-2.70;99.90;;;;;;5040333;28;20321;-79
2023/03/12 05:39:25;;;;;;;2.90;1.90;;;-2.80;99.90;;;;;;5044834;28;20240;-79
2023/03/12 05:41:56;;;;;;;4.47;2.03;;;-2.80;99.90;;;;;;5037615;28;20568;-79
2023/03/12 05:44:22;;;;;;;4.67;2.10;;;-2.70;99.90;;;;;;5037973;28;20186;-78
2023/03/12 05:46:48;;;;;;;2.67;2.17;;;-2.70;99.90;;;;;;5045466;28;20201;-78
2023/03/12 05:49:13;;;;;;;5.10;2.30;;;-2.60;99.90;;;;;;5045068;28;20249;-77
2023/03/12 05:51:39;;;;;;;5.90;2.20;;;-2.60;99.90;;;;;;5038687;28;20578;-78
2023/03/12 05:54:05;;;;;;;4.63;2.20;;;-2.40;99.90;;;;;;5036898;28;20197;-78
2023/03/12 05:56:31;;;;;;;4.40;2.20;;;-2.30;99.90;;;;;;5038273;28;20202;-79
2023/03/12 05:58:56;;;;;;;3.17;2.30;;;-2.30;99.90;;;;;;5037932;28;20207;-78
2023/03/12 06:01:25;;;;;;;6.03;2.03;;;-2.10;99.90;;;;;;5038983;28;20240;-79
2023/03/12 06:03:51;;;;;;;3.10;2.03;;;-2.10;99.90;;;;;;5036134;28;20191;-78
2023/03/12 06:06:17;;;;;;;5.37;2.00;;;-2.00;99.90;;;;;;5037810;28;21126;-77
2023/03/12 06:08:43;;;;;;;3.33;2.27;;;-2.00;99.90;;;;;;5036385;28;20179;-79
2023/03/12 06:11:09;;;;;;;4.23;2.30;;;-1.90;99.90;;;;;;5038223;28;20190;-79
2023/03/12 06:13:34;;;;;;;2.80;2.07;;;-1.80;99.90;;;;;;5037230;28;20273;-78
2023/03/12 06:16:14;;;;;;;3.03;2.27;;;-1.70;99.90;;;;;;5036729;28;20225;-77
2023/03/12 06:18:40;;;;;;;3.13;2.23;;;-1.60;99.90;;;;;;5036875;28;20262;-78
2023/03/12 06:21:12;;;;;;;4.03;2.07;;;-1.60;99.90;;;;;;5037854;28;20264;-78
2023/03/12 06:23:38;;;;;;;5.10;2.27;;;-1.50;99.90;;;;;;5036905;28;20182;-78
2023/03/12 06:26:04;;;;;;;3.63;2.10;;;-1.30;99.90;;;;;;5035993;28;20199;-77
2023/03/12 06:28:29;;;;;;;2.40;2.10;;;-1.10;99.90;;;;;;5035730;28;20194;-78
2023/03/12 06:30:55;;;;;;;4.47;2.27;;;-1.00;99.90;;;;;;5036646;28;20185;-78
2023/03/12 06:33:21;;;;;;;2.70;2.17;;;-0.90;99.90;;;;;;5035012;28;20182;-79
2023/03/12 06:35:46;;;;;;;4.77;2.30;;;-0.90;99.90;;;;;;5036967;28;20217;-79
2023/03/12 06:38:12;;;;;;;4.37;2.40;;;-0.80;99.90;;;;;;5039269;28;20218;-79
2023/03/12 06:40:38;;;;;;;5.20;2.50;;;-0.80;99.90;;;;;;5031921;28;20183;-79
2023/03/12 06:43:04;;;;;;;1.87;1.73;;;-0.80;94.10;;;;;;5037853;28;20186;-78
2023/03/12 06:45:29;;;;;;;6.50;2.33;;;-0.70;93.50;;;;;;5037058;28;20202;-77
2023/03/12 06:47:55;;;;;;;4.13;1.80;;;-0.60;91.60;;;;;;5034240;28;20187;-77
2023/03/12 06:50:20;;;;;;;3.73;1.80;;;-0.60;78.00;;;;;;5035590;28;20695;-77
2023/03/12 06:52:46;;;;;;;2.00;1.70;;;-0.50;68.70;;;;;;5034155;28;20248;-79
2023/03/12 06:55:11;;;;;;;2.10;1.70;;;-0.40;59.80;;;;;;5035855;28;20275;-79
2023/03/12 06:57:37;;;;;;;3.10;1.80;;;-0.20;62.20;;;;;;5035232;28;20211;-78
2023/03/12 07:00:04;;;;;;;3.23;1.97;;;-0.10;70.90;;;;;;5036031;28;20193;-77
2023/03/12 07:02:29;;;;;;;2.13;1.80;;;0.10;75.20;;;;;;5042142;28;20183;-77
2023/03/12 07:04:55;;;;;;;3.50;1.80;;;0.30;57.40;;;;;;5035869;28;20225;-79
2023/03/12 07:07:20;;;;;;;6.27;1.70;;;0.40;48.50;;;;;;5037248;28;20669;-78
2023/03/12 07:09:46;;;;;;;5.10;1.80;;;0.40;36.20;;;;;;5037173;28;20279;-78
2023/03/12 07:12:12;;;;;;;1.70;1.50;;;0.50;24.80;;;;;;5036237;28;20532;-78
2023/03/12 07:14:37;;;;;;;2.70;1.80;;;0.50;20.20;;;;;;5036972;28;20187;-78
2023/03/12 07:17:03;;;;;;;4.50;2.00;;;0.40;20.10;;;;;;5038760;28;20672;-78
2023/03/12 07:19:29;;;;;;;4.43;2.00;;;0.50;27.20;;;;;;5037865;28;20694;-79
2023/03/12 07:21:55;;;;;;;5.13;1.97;;;0.60;28.20;;;;;;5037062;28;21049;-78
2023/03/12 07:24:21;;;;;;;2.10;1.50;;;0.50;16.40;;;;;;5034758;28;20195;-77
2023/03/12 07:26:46;;;;;;;1.97;1.40;;;0.60;15.20;;;;;;5036972;28;20198;-77
2023/03/12 07:29:12;;;;;;;3.03;1.67;;;0.60;16.20;;;;;;5036881;28;20587;-77
2023/03/12 07:31:37;;;;;;;4.93;1.90;;;0.60;10.10;;;;;;5037844;28;20219;-79
2023/03/12 07:34:04;;;;;;;3.20;1.90;;;0.60;7.70;;;;;;5036546;28;20201;-79
2023/03/12 07:36:31;;;;;;;2.77;2.10;;;0.70;10.70;;;;;;5038328;28;20621;-79
2023/03/12 07:38:56;;;;;;;2.20;1.63;;;0.60;9.40;;;;;;5035805;28;20312;-78
2023/03/12 07:41:22;;;;;;;3.73;2.10;;;0.70;11.90;;;;;;5038454;28;20265;-78
2023/03/12 07:43:48;;;;;;;2.03;1.73;;;0.80;14.10;;;;;;5036430;28;20178;-79
2023/03/12 07:46:13;;;;;;;3.67;1.83;;;1.00;15.00;;;;;;5035886;28;20198;-78
2023/03/12 07:48:39;;;;;;;3.80;3.07;;;1.10;9.40;;;;;;5035452;28;20532;-78
2023/03/12 07:51:05;;;;;;;5.80;3.73;;;1.10;9.30;;;;;;5035970;28;20190;-78
2023/03/12 07:53:31;;;;;;;2.83;2.40;;;1.20;4.70;;;;;;5031632;28;20186;-77
2023/03/12 07:55:56;;;;;;;4.07;2.47;;;1.30;7.70;;;;;;5041557;28;20732;-79
2023/03/12 07:58:22;;;;;;;3.57;2.00;;;1.40;10.60;;;;;;5035137;28;20318;-79
2023/03/12 08:00:47;;;;;;;6.63;2.53;;;1.50;1.00;;;;;;5041217;28;20191;-78
2023/03/12 08:03:13;;;;;;;3.87;2.40;;;1.60;1.00;;;;;;5042390;28;20186;-79
2023/03/12 08:05:39;;;;;;;5.33;4.83;;;1.60;1.00;;;;;;5039509;28;20205;-78
2023/03/12 08:08:05;;;;;;;20.60;14.87;;;1.50;1.00;;;;;;5041040;28;20239;-79
2023/03/12 08:10:30;;;;;;;14.00;10.43;;;1.50;1.00;;;;;;5042482;28;20191;-78
2023/03/12 08:12:56;;;;;;;7.80;5.10;;;1.30;1.00;;;;;;5040055;28;20557;-78
2023/03/12 08:15:22;;;;;;;8.67;6.60;;;1.40;1.00;;;;;;5041354;28;20221;-77
2023/03/12 08:17:47;;;;;;;13.23;8.67;;;1.60;1.00;;;;;;5040442;28;20211;-77
2023/03/12 08:20:13;;;;;;;21.33;14.53;;;1.80;1.00;;;;;;5039613;28;20189;-79
2023/03/12 08:22:39;;;;;;;18.30;11.63;;;2.00;1.00;;;;;;5042998;28;20179;-79
2023/03/12 08:25:05;;;;;;;10.33;7.43;;;2.10;1.00;;;;;;5041836;28;20206;-79
2023/03/12 08:27:32;;;;;;;8.77;6.67;;;2.20;1.00;;;;;;5040972;28;21009;-79
2023/03/12 08:29:58;;;;;;;16.37;11.20;;;2.20;1.00;;;;;;5042805;28;20183;-79
2023/03/12 08:32:24;;;;;;;19.40;17.40;;;2.30;1.00;;;;;;5042408;28;20594;-79
2023/03/12 08:34:49;;;;;;;40.10;36.20;;;2.00;1.00;;;;;;5039507;28;20223;-80
2023/03/12 08:37:15;;;;;;;85.23;54.13;;;2.20;1.00;;;;;;5043999;28;20188;-77
2023/03/12 08:39:40;;;;;;;19.87;15.30;;;2.40;1.00;;;;;;5043286;28;20186;-79
2023/03/12 08:42:06;;;;;;;18.47;13.60;;;2.50;1.00;;;;;;5042179;28;20194;-79
2023/03/12 08:44:32;;;;;;;73.57;51.03;;;2.50;1.00;;;;;;5040002;28;20206;-79
2023/03/12 08:46:58;;;;;;;19.00;17.03;;;2.40;1.00;;;;;;5042673;28;20179;-79
2023/03/12 08:49:23;;;;;;;25.33;22.83;;;2.50;1.00;;;;;;5040587;28;20191;-79
2023/03/12 08:51:50;;;;;;;58.10;44.60;;;2.60;1.00;;;;;;5040442;28;20677;-79
2023/03/12 08:54:17;;;;;;;50.77;39.27;;;2.70;1.00;;;;;;5055185;28;20194;-78
2023/03/12 08:56:43;;;;;;;31.37;26.30;;;2.60;1.00;;;;;;5040853;28;20332;-78
2023/03/12 08:59:10;;;;;;;18.47;15.90;;;2.90;1.00;;;;;;5040833;28;20214;-79
2023/03/12 09:01:35;;;;;;;10.23;8.20;;;3.10;1.00;;;;;;5045319;28;20723;-79
2023/03/12 09:04:03;;;;;;;23.87;19.43;;;3.10;1.00;;;;;;5055560;28;20271;-78
2023/03/12 09:06:28;;;;;;;21.90;17.07;;;3.10;1.00;;;;;;5038980;28;20202;-78
2023/03/12 09:08:54;;;;;;;18.47;12.40;;;2.90;1.00;;;;;;5039380;28;20674;-78
2023/03/12 09:11:20;;;;;;;21.07;12.57;;;2.90;1.00;;;;;;5037437;28;20194;-77
2023/03/12 09:13:45;;;;;;;28.80;18.03;;;3.20;1.00;;;;;;5039640;28;20188;-78
2023/03/12 09:16:11;;;;;;;9.63;6.20;;;3.40;1.00;;;;;;5041173;28;20207;-78
2023/03/12 09:18:36;;;;;;;22.50;17.07;;;3.60;1.00;;;;;;5030610;28;20276;-79
2023/03/12 09:21:03;;;;;;;19.70;14.43;;;3.60;1.00;;;;;;5036635;28;20237;-79
2023/03/12 09:23:28;;;;;;;19.37;16.43;;;3.60;1.00;;;;;;5037113;28;20187;-79
2023/03/12 09:25:55;;;;;;;10.70;6.87;;;3.70;1.00;;;;;;5028976;28;20218;-77
2023/03/12 09:28:20;;;;;;;21.47;16.03;;;3.70;1.00;;;;;;5026861;28;20213;-77
2023/03/12 09:30:46;;;;;;;12.23;8.50;;;3.60;1.00;;;;;;5036606;28;20182;-77
2023/03/12 09:33:13;;;;;;;18.67;13.80;;;3.80;1.00;;;;;;5037176;28;20189;-77
2023/03/12 09:35:39;;;;;;;9.53;6.60;;;3.90;1.00;;;;;;5029748;28;20207;-78
2023/03/12 09:38:05;;;;;;;10.50;7.00;;;4.00;1.00;;;;;;5034604;28;20290;-78
2023/03/12 09:40:36;;;;;;;7.47;6.17;;;3.90;1.00;;;;;;5037903;28;20178;-78
2023/03/12 09:43:14;;;;;;;7.00;6.30;;;3.90;1.00;;;;;;5048685;28;20534;-77
2023/03/12 09:45:46;;;;;;;9.93;6.40;;;3.90;1.00;;;;;;5027233;28;20199;-78
2023/03/12 09:48:16;;;;;;;6.13;5.37;;;4.00;1.00;;;;;;5032078;28;20183;-77
2023/03/12 09:50:48;;;;;;;6.33;5.00;;;3.80;1.00;;;;;;5036001;28;20198;-78
2023/03/12 09:53:30;;;;;;;5.93;4.03;;;4.00;1.00;;;;;;5024955;28;20183;-78
2023/03/12 09:55:58;;;;;;;3.13;2.83;;;4.10;1.00;;;;;;5033833;28;20203;-76
2023/03/12 09:58:32;;;;;;;3.73;3.30;;;4.30;1.00;;;;;;5028928;28;20198;-76
2023/03/12 10:01:19;;;;;;;3.63;2.83;;;4.40;1.00;;;;;;5033170;28;20186;-77
2023/03/12 10:04:17;;;;;;;4.97;3.47;;;4.40;1.00;;;;;;5028639;28;20182;-78
2023/03/12 10:07:10;;;;;;;4.63;2.90;;;4.40;1.00;;;;;;5024652;28;20260;-78
2023/03/12 10:09:58;;;;;;;3.10;2.80;;;4.40;1.00;;;;;;5042831;28;20186;-76
2023/03/12 10:12:40;;;;;;;4.93;3.20;;;4.50;1.00;;;;;;5029607;28;20182;-77
2023/03/12 10:15:06;;;;;;;6.80;3.10;;;4.50;1.00;;;;;;5035724;28;20635;-75
2023/03/12 10:17:43;;;;;;;3.90;3.03;;;4.50;1.00;;;;;;5032839;28;20245;-77
2023/03/12 10:20:34;;;;;;;5.57;4.00;;;4.50;1.00;;;;;;5024981;28;20187;-77
2023/03/12 10:23:16;;;;;;;4.40;2.80;;;4.40;1.00;;;;;;5027944;28;20741;-76
2023/03/12 10:25:54;;;;;;;4.33;3.07;;;4.50;1.00;;;;;;5029805;28;20433;-80
2023/03/12 10:28:36;;;;;;;3.57;2.10;;;4.50;1.00;;;;;;5033843;28;20292;-78
2023/03/12 10:31:05;;;;;;;5.73;2.90;;;4.70;1.00;;;;;;5039966;28;20199;-79
2023/03/12 10:33:58;;;;;;;11.43;6.40;;;4.80;1.00;;;;;;5028918;28;20670;-78
2023/03/12 10:36:47;;;;;;;3.57;2.63;;;4.60;1.00;;;;;;5027907;28;20261;-78
2023/03/12 10:39:16;;;;;;;5.53;4.03;;;4.60;1.00;;;;;;5031742;28;20900;-76
2023/03/12 10:41:44;;;;;;;6.30;4.30;;;4.70;1.00;;;;;;5031913;28;20692;-78
2023/03/12 10:44:17;;;;;;;9.37;7.37;;;4.80;1.00;;;;;;5034998;28;20191;-78
2023/03/12 10:47:05;;;;;;;6.73;3.80;;;4.80;1.00;;;;;;5031928;28;20203;-77
2023/03/12 10:49:36;;;;;;;5.13;4.23;;;4.90;1.00;;;;;;5033819;28;20183;-77
2023/03/12 10:52:15;;;;;;;4.27;2.70;;;5.10;1.00;;;;;;5027907;28;20654;-74
2023/03/12 10:54:43;;;;;;;2.97;1.90;;;5.00;1.00;;;;;;5027669;28;20193;-77
2023/03/12 10:57:10;;;;;;;3.53;2.10;;;4.90;1.00;;;;;;5043444;28;20194;-77
2023/03/12 10:59:41;;;;;;;3.20;2.10;;;4.90;1.00;;;;;;5027020;28;21044;-77
2023/03/12 11:02:29;;;;;;;3.60;1.57;;;5.00;1.00;;;;;;5042263;28;20567;-77
2023/03/12 11:04:55;;;;;;;3.13;1.93;;;4.90;1.00;;;;;;5024230;28;20262;-77
2023/03/12 11:07:29;;;;;;;2.97;2.20;;;4.70;1.00;;;;;;5033105;28;20472;-77
2023/03/12 11:10:07;;;;;;;4.20;1.63;;;4.70;1.00;;;;;;5041159;28;20201;-78
2023/03/12 11:12:35;;;;;;;2.50;1.13;;;4.70;1.00;;;;;;5025774;28;20193;-78
2023/03/12 11:15:28;;;;;;;3.80;1.70;;;4.60;1.00;;;;;;5023453;28;20203;-77
2023/03/12 11:18:28;;;;;;;2.87;1.90;;;4.60;1.00;;;;;;5024297;28;20206;-77
2023/03/12 11:21:07;;;;;;;3.60;1.43;;;4.60;1.00;;;;;;5039565;28;20724;-78
2023/03/12 11:23:34;;;;;;;3.27;1.70;;;4.70;1.00;;;;;;5043237;28;20178;-78
2023/03/12 11:26:02;;;;;;;3.10;1.53;;;4.90;1.00;;;;;;5025378;28;20210;-77
2023/03/12 11:28:36;;;;;;;3.73;2.73;;;5.00;1.00;;;;;;5026582;28;20211;-77
2023/03/12 11:31:04;;;;;;;2.83;1.10;;;5.00;1.00;;;;;;5024779;28;20265;-78
2023/03/12 11:33:30;;;;;;;3.50;2.30;;;5.10;1.00;;;;;;5032448;28;20670;-78
2023/03/12 11:36:25;;;;;;;3.27;1.60;;;5.00;1.00;;;;;;5024622;28;21463;-78
2023/03/12 11:39:00;;;;;;;4.23;2.83;;;4.90;1.00;;;;;;5028299;28;20233;-78
2023/03/12 11:41:43;;;;;;;4.13;1.30;;;4.80;1.00;;;;;;5025016;28;20182;-78
2023/03/12 11:44:21;;;;;;;3.47;1.13;;;4.70;1.00;;;;;;5026047;28;20196;-77
2023/03/12 11:47:12;;;;;;;3.20;1.30;;;4.60;1.00;;;;;;5024295;28;20217;-77
2023/03/12 11:49:56;;;;;;;1.73;1.20;;;4.50;1.00;;;;;;5041456;28;20571;-77
2023/03/12 11:52:46;;;;;;;3.23;1.27;;;4.60;1.00;;;;;;5021588;28;20187;-78
2023/03/12 11:55:49;;;;;;;3.33;1.37;;;4.70;1.00;;;;;;5022669;28;20264;-78
2023/03/12 11:58:42;;;;;;;3.00;1.20;;;4.80;1.00;;;;;;5033691;28;20834;-78
2023/03/12 12:01:56;;;;;;;3.43;1.50;;;4.80;1.00;;;;;;5027457;28;20183;-78
2023/03/12 12:04:53;;;;;;;2.27;1.57;;;4.80;1.00;;;;;;4998329;28;20193;-77
2023/03/12 12:07:34;;;;;;;2.27;1.23;;;4.80;1.00;;;;;;5032316;28;20277;-78
2023/03/12 12:10:25;;;;;;;2.40;1.40;;;4.80;1.00;;;;;;5032949;28;20178;-78
2023/03/12 12:13:21;;;;;;;2.77;1.20;;;4.80;1.00;;;;;;5036804;28;20183;-77
2023/03/12 12:16:20;;;;;;;1.50;0.90;;;4.70;1.00;;;;;;5031133;28;20822;-76
2023/03/12 12:18:53;;;;;;;1.63;1.07;;;4.60;1.00;;;;;;5026553;28;20518;-77
2023/03/12 12:21:41;;;;;;;2.80;1.43;;;4.50;1.00;;;;;;5034749;28;20210;-78
2023/03/12 12:24:26;;;;;;;2.00;1.07;;;4.50;1.00;;;;;;5033889;28;20186;-78
2023/03/12 12:27:21;;;;;;;2.83;1.40;;;4.40;1.00;;;;;;5028523;28;20182;-77
2023/03/12 12:30:12;;;;;;;1.90;1.30;;;4.10;1.00;;;;;;5028965;28;20191;-77
2023/03/12 12:33:08;;;;;;;3.53;1.10;;;4.00;1.00;;;;;;5035088;28;20183;-76
2023/03/12 12:35:40;;;;;;;5.47;1.37;;;3.90;1.00;;;;;;5030795;28;20195;-76
2023/03/12 12:38:28;;;;;;;4.47;1.43;;;3.80;1.00;;;;;;5034376;28;20304;-77
2023/03/12 12:41:10;;;;;;;5.33;1.63;;;4.00;1.00;;;;;;5035781;28;20182;-77
2023/03/12 12:43:42;;;;;;;3.40;1.60;;;4.00;1.00;;;;;;5033250;28;20182;-78
2023/03/12 12:46:13;;;;;;;2.77;1.60;;;4.20;1.00;;;;;;5033367;28;20207;-77
2023/03/12 12:48:43;;;;;;;3.97;1.90;;;4.20;1.00;;;;;;5032723;28;20178;-78
2023/03/12 12:51:10;;;;;;;3.73;1.77;;;4.20;1.00;;;;;;5049320;28;20193;-77
2023/03/12 12:53:49;;;;;;;5.07;2.73;;;4.20;1.00;;;;;;5034848;28;20293;-78
2023/03/12 12:56:45;;;;;;;3.67;1.63;;;4.30;1.00;;;;;;5035483;28;20519;-77
2023/03/12 12:59:26;;;;;;;4.33;2.43;;;4.30;1.00;;;;;;5038468;28;20226;-77
2023/03/12 13:01:54;;;;;;;3.47;2.33;;;4.30;1.00;;;;;;5042152;28;20186;-76
2023/03/12 13:04:25;;;;;;;2.67;2.10;;;4.40;1.00;;;;;;5031144;28;20551;-78
2023/03/12 13:06:55;;;;;;;4.43;2.37;;;4.40;1.00;;;;;;5036889;28;20209;-79
2023/03/12 13:09:40;;;;;;;5.53;3.27;;;4.40;1.00;;;;;;5036018;28;20572;-78